sensor_id;sensor_type;location;lat;lon;timestamp;P1;durP1;ratioP1;P2;durP2;ratioP2
29570;SDS011;16814;52.118;11.436;2023-05-02T00:00:31;5.82;;;3.67;;
29570;SDS011;16814;52.118;11.436;2023-05-02T00:03:01;7.80;;;3.60;;
29570;SDS011;16814;52.118;11.436;2023-05-02T00:05:30;5.22;;;3.30;;
29570;SDS011;16814;52.118;11.436;2023-05-02T00:07:59;5.45;;;3.28;;
29570;SDS011;16814;52.118;11.436;2023-05-02T00:10:25;6.65;;;3.08;;
29570;SDS011;16814;52.118;11.436;2023-05-02T00:12:51;7.18;;;2.90;;
29570;SDS011;16814;52.118;11.436;2023-05-02T00:15:20;6.97;;;3.42;;
29570;SDS011;16814;52.118;11.436;2023-05-02T00:17:45;7.85;;;3.10;;
29570;SDS011;16814;52.118;11.436;2023-05-02T00:20:13;4.47;;;3.20;;
29570;SDS011;16814;52.118;11.436;2023-05-02T00:22:40;12.00;;;3.30;;
29570;SDS011;16814;52.118;11.436;2023-05-02T00:25:07;7.43;;;3.50;;
29570;SDS011;16814;52.118;11.436;2023-05-02T00:27:34;5.03;;;3.40;;
29570;SDS011;16814;52.118;11.436;2023-05-02T00:30:00;7.63;;;3.77;;
29570;SDS011;16814;52.118;11.436;2023-05-02T00:32:27;6.87;;;3.47;;
29570;SDS011;16814;52.118;11.436;2023-05-02T00:34:53;5.80;;;3.40;;
29570;SDS011;16814;52.118;11.436;2023-05-02T00:37:19;7.65;;;3.47;;
29570;SDS011;16814;52.118;11.436;2023-05-02T00:39:51;5.70;;;3.50;;
29570;SDS011;16814;52.118;11.436;2023-05-02T00:42:18;6.93;;;3.30;;
29570;SDS011;16814;52.118;11.436;2023-05-02T00:44:49;6.15;;;3.08;;
29570;SDS011;16814;52.118;11.436;2023-05-02T00:47:14;5.80;;;3.00;;
29570;SDS011;16814;52.118;11.436;2023-05-02T00:49:41;6.68;;;3.25;;
29570;SDS011;16814;52.118;11.436;2023-05-02T00:52:09;5.55;;;2.90;;
29570;SDS011;16814;52.118;11.436;2023-05-02T00:54:36;6.57;;;3.20;;
29570;SDS011;16814;52.118;11.436;2023-05-02T00:57:04;5.55;;;3.03;;
29570;SDS011;16814;52.118;11.436;2023-05-02T00:59:30;5.57;;;3.10;;
29570;SDS011;16814;52.118;11.436;2023-05-02T01:05:09;6.60;;;2.80;;
29570;SDS011;16814;52.118;11.436;2023-05-02T01:13:21;4.93;;;2.97;;
29570;SDS011;16814;52.118;11.436;2023-05-02T01:15:52;3.77;;;2.83;;
29570;SDS011;16814;52.118;11.436;2023-05-02T01:18:20;9.13;;;3.42;;
29570;SDS011;16814;52.118;11.436;2023-05-02T01:20:50;5.32;;;3.08;;
29570;SDS011;16814;52.118;11.436;2023-05-02T01:23:24;4.85;;;2.80;;
29570;SDS011;16814;52.118;11.436;2023-05-02T01:26:14;7.70;;;2.90;;
29570;SDS011;16814;52.118;11.436;2023-05-02T01:29:06;6.10;;;2.70;;
29570;SDS011;16814;52.118;11.436;2023-05-02T01:31:40;6.35;;;2.95;;
29570;SDS011;16814;52.118;11.436;2023-05-02T01:34:08;6.53;;;3.13;;
29570;SDS011;16814;52.118;11.436;2023-05-02T01:36:41;7.32;;;3.20;;
29570;SDS011;16814;52.118;11.436;2023-05-02T01:39:14;4.77;;;3.00;;
29570;SDS011;16814;52.118;11.436;2023-05-02T01:41:45;7.10;;;3.25;;
29570;SDS011;16814;52.118;11.436;2023-05-02T01:44:17;5.63;;;3.10;;
29570;SDS011;16814;52.118;11.436;2023-05-02T01:46:45;5.45;;;3.42;;
29570;SDS011;16814;52.118;11.436;2023-05-02T01:49:12;7.28;;;3.30;;
29570;SDS011;16814;52.118;11.436;2023-05-02T01:51:45;6.93;;;3.47;;
29570;SDS011;16814;52.118;11.436;2023-05-02T01:54:15;6.47;;;3.53;;
29570;SDS011;16814;52.118;11.436;2023-05-02T01:56:42;7.45;;;3.60;;
29570;SDS011;16814;52.118;11.436;2023-05-02T01:59:13;9.02;;;4.18;;
29570;SDS011;16814;52.118;11.436;2023-05-02T02:01:45;8.05;;;3.90;;
29570;SDS011;16814;52.118;11.436;2023-05-02T02:04:14;8.48;;;4.00;;
29570;SDS011;16814;52.118;11.436;2023-05-02T02:06:44;7.63;;;4.00;;
29570;SDS011;16814;52.118;11.436;2023-05-02T02:09:16;9.45;;;4.10;;
29570;SDS011;16814;52.118;11.436;2023-05-02T02:12:06;9.30;;;3.70;;
29570;SDS011;16814;52.118;11.436;2023-05-02T02:14:34;7.10;;;3.63;;
29570;SDS011;16814;52.118;11.436;2023-05-02T02:17:14;7.47;;;4.07;;
29570;SDS011;16814;52.118;11.436;2023-05-02T02:19:51;6.37;;;3.80;;
29570;SDS011;16814;52.118;11.436;2023-05-02T02:22:20;7.20;;;3.85;;
29570;SDS011;16814;52.118;11.436;2023-05-02T02:24:50;8.50;;;3.42;;
29570;SDS011;16814;52.118;11.436;2023-05-02T02:27:17;6.72;;;3.65;;
29570;SDS011;16814;52.118;11.436;2023-05-02T02:29:43;5.80;;;3.67;;
29570;SDS011;16814;52.118;11.436;2023-05-02T02:32:10;5.60;;;3.60;;
29570;SDS011;16814;52.118;11.436;2023-05-02T02:34:36;6.88;;;3.38;;
29570;SDS011;16814;52.118;11.436;2023-05-02T02:37:04;8.43;;;3.73;;
29570;SDS011;16814;52.118;11.436;2023-05-02T02:42:48;7.35;;;3.80;;
29570;SDS011;16814;52.118;11.436;2023-05-02T02:45:47;9.02;;;4.00;;
29570;SDS011;16814;52.118;11.436;2023-05-02T02:48:42;9.18;;;3.80;;
29570;SDS011;16814;52.118;11.436;2023-05-02T02:51:31;7.40;;;4.05;;
29570;SDS011;16814;52.118;11.436;2023-05-02T02:57:03;12.02;;;4.30;;
29570;SDS011;16814;52.118;11.436;2023-05-02T02:59:51;11.45;;;4.25;;
29570;SDS011;16814;52.118;11.436;2023-05-02T03:02:39;7.50;;;3.97;;
29570;SDS011;16814;52.118;11.436;2023-05-02T03:05:08;7.30;;;4.00;;
29570;SDS011;16814;52.118;11.436;2023-05-02T03:07:34;9.38;;;4.00;;
29570;SDS011;16814;52.118;11.436;2023-05-02T03:10:02;10.20;;;4.03;;
29570;SDS011;16814;52.118;11.436;2023-05-02T03:12:30;8.82;;;4.40;;
29570;SDS011;16814;52.118;11.436;2023-05-02T03:18:01;8.13;;;4.28;;
29570;SDS011;16814;52.118;11.436;2023-05-02T03:20:27;7.83;;;4.70;;
29570;SDS011;16814;52.118;11.436;2023-05-02T03:22:55;9.50;;;4.60;;
29570;SDS011;16814;52.118;11.436;2023-05-02T03:25:21;9.32;;;4.45;;
29570;SDS011;16814;52.118;11.436;2023-05-02T03:27:48;12.70;;;4.60;;
29570;SDS011;16814;52.118;11.436;2023-05-02T03:30:14;10.40;;;5.10;;
29570;SDS011;16814;52.118;11.436;2023-05-02T03:32:41;10.70;;;4.97;;
29570;SDS011;16814;52.118;11.436;2023-05-02T03:35:07;9.77;;;5.00;;
29570;SDS011;16814;52.118;11.436;2023-05-02T03:37:34;11.37;;;5.73;;
29570;SDS011;16814;52.118;11.436;2023-05-02T03:40:00;9.90;;;5.20;;
29570;SDS011;16814;52.118;11.436;2023-05-02T03:42:28;9.00;;;5.50;;
29570;SDS011;16814;52.118;11.436;2023-05-02T03:44:54;10.57;;;5.32;;
29570;SDS011;16814;52.118;11.436;2023-05-02T03:47:20;9.70;;;5.50;;
29570;SDS011;16814;52.118;11.436;2023-05-02T03:49:47;10.30;;;5.90;;
29570;SDS011;16814;52.118;11.436;2023-05-02T03:52:15;11.27;;;6.22;;
29570;SDS011;16814;52.118;11.436;2023-05-02T03:54:41;12.88;;;6.32;;
29570;SDS011;16814;52.118;11.436;2023-05-02T03:57:08;10.77;;;6.70;;
29570;SDS011;16814;52.118;11.436;2023-05-02T03:59:34;11.17;;;6.73;;
29570;SDS011;16814;52.118;11.436;2023-05-02T04:02:00;15.48;;;7.22;;
29570;SDS011;16814;52.118;11.436;2023-05-02T04:04:27;9.37;;;6.03;;
29570;SDS011;16814;52.118;11.436;2023-05-02T04:06:52;13.85;;;6.38;;
29570;SDS011;16814;52.118;11.436;2023-05-02T04:09:19;11.82;;;6.38;;
29570;SDS011;16814;52.118;11.436;2023-05-02T04:11:51;14.77;;;6.85;;
29570;SDS011;16814;52.118;11.436;2023-05-02T04:14:18;13.90;;;7.15;;
29570;SDS011;16814;52.118;11.436;2023-05-02T04:16:50;12.90;;;6.38;;
29570;SDS011;16814;52.118;11.436;2023-05-02T04:19:17;10.47;;;6.10;;
29570;SDS011;16814;52.118;11.436;2023-05-02T04:21:45;13.02;;;6.13;;
29570;SDS011;16814;52.118;11.436;2023-05-02T04:24:12;10.68;;;6.10;;
29570;SDS011;16814;52.118;11.436;2023-05-02T04:26:39;12.25;;;6.53;;
29570;SDS011;16814;52.118;11.436;2023-05-02T04:29:04;14.50;;;6.50;;
29570;SDS011;16814;52.118;11.436;2023-05-02T04:31:31;13.50;;;6.63;;
29570;SDS011;16814;52.118;11.436;2023-05-02T04:33:58;13.85;;;7.20;;
29570;SDS011;16814;52.118;11.436;2023-05-02T04:36:26;14.32;;;7.30;;
29570;SDS011;16814;52.118;11.436;2023-05-02T04:38:52;14.70;;;7.60;;
29570;SDS011;16814;52.118;11.436;2023-05-02T04:41:18;15.32;;;7.85;;
29570;SDS011;16814;52.118;11.436;2023-05-02T04:43:45;15.90;;;8.13;;
29570;SDS011;16814;52.118;11.436;2023-05-02T04:46:11;29.25;;;9.30;;
29570;SDS011;16814;52.118;11.436;2023-05-02T04:48:36;21.27;;;9.50;;
29570;SDS011;16814;52.118;11.436;2023-05-02T04:51:06;24.15;;;9.90;;
29570;SDS011;16814;52.118;11.436;2023-05-02T04:53:35;25.35;;;10.05;;
29570;SDS011;16814;52.118;11.436;2023-05-02T04:56:02;21.88;;;9.43;;
29570;SDS011;16814;52.118;11.436;2023-05-02T04:58:36;21.08;;;10.15;;
29570;SDS011;16814;52.118;11.436;2023-05-02T05:01:03;19.70;;;9.93;;
29570;SDS011;16814;52.118;11.436;2023-05-02T05:03:31;19.08;;;9.68;;
29570;SDS011;16814;52.118;11.436;2023-05-02T05:05:58;18.98;;;9.38;;
29570;SDS011;16814;52.118;11.436;2023-05-02T05:08:24;20.27;;;9.20;;
29570;SDS011;16814;52.118;11.436;2023-05-02T05:10:51;19.08;;;9.20;;
29570;SDS011;16814;52.118;11.436;2023-05-02T05:13:20;16.10;;;9.23;;
29570;SDS011;16814;52.118;11.436;2023-05-02T05:15:47;17.27;;;9.15;;
29570;SDS011;16814;52.118;11.436;2023-05-02T05:18:13;16.70;;;9.53;;
29570;SDS011;16814;52.118;11.436;2023-05-02T05:20:38;17.52;;;9.32;;
29570;SDS011;16814;52.118;11.436;2023-05-02T05:23:04;14.97;;;8.07;;
29570;SDS011;16814;52.118;11.436;2023-05-02T05:25:30;16.40;;;8.80;;
29570;SDS011;16814;52.118;11.436;2023-05-02T05:27:56;14.65;;;7.20;;
29570;SDS011;16814;52.118;11.436;2023-05-02T05:30:27;14.63;;;7.32;;
29570;SDS011;16814;52.118;11.436;2023-05-02T05:32:55;14.10;;;7.10;;
29570;SDS011;16814;52.118;11.436;2023-05-02T05:35:22;12.70;;;7.20;;
29570;SDS011;16814;52.118;11.436;2023-05-02T05:37:50;15.18;;;7.57;;
29570;SDS011;16814;52.118;11.436;2023-05-02T05:40:17;14.30;;;8.75;;
29570;SDS011;16814;52.118;11.436;2023-05-02T05:42:43;23.13;;;9.70;;
29570;SDS011;16814;52.118;11.436;2023-05-02T05:45:08;20.80;;;10.60;;
29570;SDS011;16814;52.118;11.436;2023-05-02T05:47:36;21.20;;;11.63;;
29570;SDS011;16814;52.118;11.436;2023-05-02T05:50:03;27.10;;;14.97;;
29570;SDS011;16814;52.118;11.436;2023-05-02T05:52:31;23.63;;;13.87;;
29570;SDS011;16814;52.118;11.436;2023-05-02T05:54:57;25.80;;;15.10;;
29570;SDS011;16814;52.118;11.436;2023-05-02T05:57:23;31.95;;;17.02;;
29570;SDS011;16814;52.118;11.436;2023-05-02T05:59:50;30.58;;;17.10;;
29570;SDS011;16814;52.118;11.436;2023-05-02T06:02:17;27.33;;;17.38;;
29570;SDS011;16814;52.118;11.436;2023-05-02T06:04:44;29.98;;;17.58;;
29570;SDS011;16814;52.118;11.436;2023-05-02T06:07:10;33.60;;;19.35;;
29570;SDS011;16814;52.118;11.436;2023-05-02T06:09:36;30.07;;;18.47;;
29570;SDS011;16814;52.118;11.436;2023-05-02T06:12:01;33.40;;;19.02;;
29570;SDS011;16814;52.118;11.436;2023-05-02T06:14:29;36.20;;;19.98;;
29570;SDS011;16814;52.118;11.436;2023-05-02T06:16:57;34.55;;;19.00;;
29570;SDS011;16814;52.118;11.436;2023-05-02T06:19:24;34.65;;;20.50;;
29570;SDS011;16814;52.118;11.436;2023-05-02T06:21:52;38.97;;;19.25;;
29570;SDS011;16814;52.118;11.436;2023-05-02T06:24:19;34.40;;;19.67;;
29570;SDS011;16814;52.118;11.436;2023-05-02T06:26:45;34.58;;;20.08;;
29570;SDS011;16814;52.118;11.436;2023-05-02T06:29:12;31.60;;;19.52;;
29570;SDS011;16814;52.118;11.436;2023-05-02T06:31:38;30.13;;;18.50;;
29570;SDS011;16814;52.118;11.436;2023-05-02T06:34:04;28.85;;;18.63;;
29570;SDS011;16814;52.118;11.436;2023-05-02T06:36:30;35.20;;;19.93;;
29570;SDS011;16814;52.118;11.436;2023-05-02T06:38:58;35.58;;;20.73;;
29570;SDS011;16814;52.118;11.436;2023-05-02T06:41:24;42.28;;;22.33;;
29570;SDS011;16814;52.118;11.436;2023-05-02T06:43:51;38.83;;;22.70;;
29570;SDS011;16814;52.118;11.436;2023-05-02T06:46:16;35.38;;;21.77;;
29570;SDS011;16814;52.118;11.436;2023-05-02T06:48:44;38.40;;;22.38;;
29570;SDS011;16814;52.118;11.436;2023-05-02T06:51:13;40.70;;;22.70;;
29570;SDS011;16814;52.118;11.436;2023-05-02T06:53:40;37.45;;;22.27;;
29570;SDS011;16814;52.118;11.436;2023-05-02T06:56:08;38.88;;;21.70;;
29570;SDS011;16814;52.118;11.436;2023-05-02T06:58:35;35.77;;;21.40;;
29570;SDS011;16814;52.118;11.436;2023-05-02T07:01:02;36.57;;;22.00;;
29570;SDS011;16814;52.118;11.436;2023-05-02T07:03:27;33.00;;;20.30;;
29570;SDS011;16814;52.118;11.436;2023-05-02T07:05:56;34.30;;;19.43;;
29570;SDS011;16814;52.118;11.436;2023-05-02T07:08:23;35.22;;;21.25;;
29570;SDS011;16814;52.118;11.436;2023-05-02T07:10:49;33.83;;;20.55;;
29570;SDS011;16814;52.118;11.436;2023-05-02T07:13:17;33.60;;;20.37;;
29570;SDS011;16814;52.118;11.436;2023-05-02T07:15:44;37.85;;;20.98;;
29570;SDS011;16814;52.118;11.436;2023-05-02T07:18:10;38.63;;;21.60;;
29570;SDS011;16814;52.118;11.436;2023-05-02T07:20:39;32.33;;;19.17;;
29570;SDS011;16814;52.118;11.436;2023-05-02T07:23:06;32.75;;;19.73;;
29570;SDS011;16814;52.118;11.436;2023-05-02T07:25:33;32.75;;;20.27;;
29570;SDS011;16814;52.118;11.436;2023-05-02T07:28:01;36.45;;;19.30;;
29570;SDS011;16814;52.118;11.436;2023-05-02T07:30:37;30.58;;;17.55;;
29570;SDS011;16814;52.118;11.436;2023-05-02T07:33:04;26.25;;;16.25;;
29570;SDS011;16814;52.118;11.436;2023-05-02T07:35:30;24.67;;;15.20;;
29570;SDS011;16814;52.118;11.436;2023-05-02T07:37:58;22.20;;;14.15;;
29570;SDS011;16814;52.118;11.436;2023-05-02T07:40:25;22.08;;;13.40;;
29570;SDS011;16814;52.118;11.436;2023-05-02T07:42:53;19.23;;;12.17;;
29570;SDS011;16814;52.118;11.436;2023-05-02T07:45:19;18.48;;;11.60;;
29570;SDS011;16814;52.118;11.436;2023-05-02T07:47:45;16.38;;;10.60;;
29570;SDS011;16814;52.118;11.436;2023-05-02T07:50:11;16.38;;;10.48;;
29570;SDS011;16814;52.118;11.436;2023-05-02T07:52:39;15.65;;;10.10;;
29570;SDS011;16814;52.118;11.436;2023-05-02T07:55:05;17.25;;;10.52;;
29570;SDS011;16814;52.118;11.436;2023-05-02T07:57:31;17.25;;;10.18;;
29570;SDS011;16814;52.118;11.436;2023-05-02T07:59:58;13.10;;;8.83;;
29570;SDS011;16814;52.118;11.436;2023-05-02T08:02:25;11.48;;;7.97;;
29570;SDS011;16814;52.118;11.436;2023-05-02T08:04:51;13.55;;;8.15;;
29570;SDS011;16814;52.118;11.436;2023-05-02T08:07:18;12.23;;;8.30;;
29570;SDS011;16814;52.118;11.436;2023-05-02T08:09:46;12.23;;;8.25;;
29570;SDS011;16814;52.118;11.436;2023-05-02T08:12:16;15.63;;;9.70;;
29570;SDS011;16814;52.118;11.436;2023-05-02T08:14:42;24.30;;;10.63;;
29570;SDS011;16814;52.118;11.436;2023-05-02T08:17:09;18.17;;;10.50;;
29570;SDS011;16814;52.118;11.436;2023-05-02T08:19:34;15.93;;;10.33;;
29570;SDS011;16814;52.118;11.436;2023-05-02T08:22:01;17.15;;;11.20;;
29570;SDS011;16814;52.118;11.436;2023-05-02T08:24:28;18.50;;;11.00;;
29570;SDS011;16814;52.118;11.436;2023-05-02T08:26:55;18.63;;;11.30;;
29570;SDS011;16814;52.118;11.436;2023-05-02T08:29:22;18.17;;;10.30;;
29570;SDS011;16814;52.118;11.436;2023-05-02T08:31:49;14.60;;;8.98;;
29570;SDS011;16814;52.118;11.436;2023-05-02T08:34:16;12.20;;;7.20;;
29570;SDS011;16814;52.118;11.436;2023-05-02T08:36:43;9.67;;;5.33;;
29570;SDS011;16814;52.118;11.436;2023-05-02T08:39:08;7.83;;;4.20;;
29570;SDS011;16814;52.118;11.436;2023-05-02T08:41:36;5.87;;;3.60;;
29570;SDS011;16814;52.118;11.436;2023-05-02T08:44:05;10.27;;;3.35;;
29570;SDS011;16814;52.118;11.436;2023-05-02T08:46:31;6.00;;;3.42;;
29570;SDS011;16814;52.118;11.436;2023-05-02T08:49:01;4.93;;;2.42;;
29570;SDS011;16814;52.118;11.436;2023-05-02T08:51:32;4.65;;;2.58;;
29570;SDS011;16814;52.118;11.436;2023-05-02T08:54:01;3.87;;;2.17;;
29570;SDS011;16814;52.118;11.436;2023-05-02T08:56:27;6.82;;;2.53;;
29570;SDS011;16814;52.118;11.436;2023-05-02T08:58:55;5.03;;;1.83;;
29570;SDS011;16814;52.118;11.436;2023-05-02T09:01:23;5.20;;;2.10;;
29570;SDS011;16814;52.118;11.436;2023-05-02T09:04:02;7.10;;;1.63;;
29570;SDS011;16814;52.118;11.436;2023-05-02T09:06:30;3.17;;;1.60;;
29570;SDS011;16814;52.118;11.436;2023-05-02T09:08:58;4.00;;;1.60;;
29570;SDS011;16814;52.118;11.436;2023-05-02T09:11:26;5.78;;;2.17;;
29570;SDS011;16814;52.118;11.436;2023-05-02T09:13:54;5.70;;;2.13;;
29570;SDS011;16814;52.118;11.436;2023-05-02T09:16:24;8.60;;;3.47;;
29570;SDS011;16814;52.118;11.436;2023-05-02T09:18:53;13.73;;;5.00;;
29570;SDS011;16814;52.118;11.436;2023-05-02T09:21:21;14.38;;;4.95;;
29570;SDS011;16814;52.118;11.436;2023-05-02T09:23:54;13.63;;;4.90;;
29570;SDS011;16814;52.118;11.436;2023-05-02T09:26:29;12.35;;;5.25;;
29570;SDS011;16814;52.118;11.436;2023-05-02T09:28:57;12.00;;;5.50;;
29570;SDS011;16814;52.118;11.436;2023-05-02T09:31:34;20.25;;;9.07;;
29570;SDS011;16814;52.118;11.436;2023-05-02T09:34:08;18.05;;;6.20;;
29570;SDS011;16814;52.118;11.436;2023-05-02T09:36:39;15.43;;;5.28;;
29570;SDS011;16814;52.118;11.436;2023-05-02T09:39:10;18.77;;;5.78;;
29570;SDS011;16814;52.118;11.436;2023-05-02T09:41:46;18.88;;;6.10;;
29570;SDS011;16814;52.118;11.436;2023-05-02T09:44:19;18.55;;;7.90;;
29570;SDS011;16814;52.118;11.436;2023-05-02T09:46:47;18.40;;;6.70;;
29570;SDS011;16814;52.118;11.436;2023-05-02T09:49:16;13.73;;;6.38;;
29570;SDS011;16814;52.118;11.436;2023-05-02T09:52:13;13.82;;;5.57;;
29570;SDS011;16814;52.118;11.436;2023-05-02T09:54:46;16.25;;;5.22;;
29570;SDS011;16814;52.118;11.436;2023-05-02T09:57:16;15.82;;;4.82;;
29570;SDS011;16814;52.118;11.436;2023-05-02T09:59:52;13.30;;;4.63;;
29570;SDS011;16814;52.118;11.436;2023-05-02T10:02:19;13.43;;;4.37;;
29570;SDS011;16814;52.118;11.436;2023-05-02T10:04:46;16.00;;;4.32;;
29570;SDS011;16814;52.118;11.436;2023-05-02T10:07:14;13.73;;;4.00;;
29570;SDS011;16814;52.118;11.436;2023-05-02T10:09:42;13.65;;;3.85;;
29570;SDS011;16814;52.118;11.436;2023-05-02T10:12:10;14.23;;;4.00;;
29570;SDS011;16814;52.118;11.436;2023-05-02T10:14:42;15.32;;;3.78;;
29570;SDS011;16814;52.118;11.436;2023-05-02T10:17:24;12.25;;;3.63;;
29570;SDS011;16814;52.118;11.436;2023-05-02T10:20:04;12.93;;;3.55;;
29570;SDS011;16814;52.118;11.436;2023-05-02T10:22:37;14.38;;;4.28;;
29570;SDS011;16814;52.118;11.436;2023-05-02T10:25:06;14.40;;;3.90;;
29570;SDS011;16814;52.118;11.436;2023-05-02T10:27:35;14.30;;;4.10;;
29570;SDS011;16814;52.118;11.436;2023-05-02T10:30:06;14.00;;;3.90;;
29570;SDS011;16814;52.118;11.436;2023-05-02T10:32:34;14.40;;;4.07;;
29570;SDS011;16814;52.118;11.436;2023-05-02T10:35:03;13.98;;;4.03;;
29570;SDS011;16814;52.118;11.436;2023-05-02T10:37:29;15.68;;;3.58;;
29570;SDS011;16814;52.118;11.436;2023-05-02T10:39:59;15.63;;;3.45;;
29570;SDS011;16814;52.118;11.436;2023-05-02T10:42:27;12.65;;;3.47;;
29570;SDS011;16814;52.118;11.436;2023-05-02T10:44:54;13.70;;;3.50;;
29570;SDS011;16814;52.118;11.436;2023-05-02T10:47:26;15.00;;;3.77;;
29570;SDS011;16814;52.118;11.436;2023-05-02T10:49:58;14.63;;;3.65;;
29570;SDS011;16814;52.118;11.436;2023-05-02T10:52:28;13.53;;;3.60;;
29570;SDS011;16814;52.118;11.436;2023-05-02T11:00:28;11.52;;;3.42;;
29570;SDS011;16814;52.118;11.436;2023-05-02T11:02:59;12.23;;;3.35;;
29570;SDS011;16814;52.118;11.436;2023-05-02T11:05:26;10.98;;;2.97;;
29570;SDS011;16814;52.118;11.436;2023-05-02T11:10:40;15.98;;;4.10;;
29570;SDS011;16814;52.118;11.436;2023-05-02T11:13:06;15.98;;;3.33;;
29570;SDS011;16814;52.118;11.436;2023-05-02T11:18:11;19.88;;;3.78;;
29570;SDS011;16814;52.118;11.436;2023-05-02T11:20:41;15.70;;;3.60;;
29570;SDS011;16814;52.118;11.436;2023-05-02T11:25:45;13.82;;;3.35;;
29570;SDS011;16814;52.118;11.436;2023-05-02T11:31:08;14.75;;;3.65;;
29570;SDS011;16814;52.118;11.436;2023-05-02T11:34:01;16.40;;;3.78;;
29570;SDS011;16814;52.118;11.436;2023-05-02T11:38:54;18.17;;;4.05;;
29570;SDS011;16814;52.118;11.436;2023-05-02T11:41:21;12.63;;;3.30;;
29570;SDS011;16814;52.118;11.436;2023-05-02T11:44:03;16.17;;;3.83;;
29570;SDS011;16814;52.118;11.436;2023-05-02T11:46:30;13.43;;;3.38;;
29570;SDS011;16814;52.118;11.436;2023-05-02T11:49:09;15.27;;;3.67;;
29570;SDS011;16814;52.118;11.436;2023-05-02T11:51:37;11.90;;;3.08;;
29570;SDS011;16814;52.118;11.436;2023-05-02T11:54:02;9.30;;;2.70;;
29570;SDS011;16814;52.118;11.436;2023-05-02T11:56:31;13.45;;;3.28;;
29570;SDS011;16814;52.118;11.436;2023-05-02T11:58:59;13.97;;;2.73;;
29570;SDS011;16814;52.118;11.436;2023-05-02T12:01:25;6.50;;;2.40;;
29570;SDS011;16814;52.118;11.436;2023-05-02T12:04:02;9.63;;;2.40;;
29570;SDS011;16814;52.118;11.436;2023-05-02T12:06:30;6.93;;;2.00;;
29570;SDS011;16814;52.118;11.436;2023-05-02T12:09:06;11.77;;;2.92;;
29570;SDS011;16814;52.118;11.436;2023-05-02T12:11:44;12.65;;;3.03;;
29570;SDS011;16814;52.118;11.436;2023-05-02T12:14:25;7.90;;;2.67;;
29570;SDS011;16814;52.118;11.436;2023-05-02T12:16:55;10.43;;;3.03;;
29570;SDS011;16814;52.118;11.436;2023-05-02T12:19:23;14.88;;;3.22;;
29570;SDS011;16814;52.118;11.436;2023-05-02T12:21:49;8.50;;;2.50;;
29570;SDS011;16814;52.118;11.436;2023-05-02T12:24:17;7.57;;;2.67;;
29570;SDS011;16814;52.118;11.436;2023-05-02T12:26:43;14.68;;;3.55;;
29570;SDS011;16814;52.118;11.436;2023-05-02T12:29:09;11.77;;;3.92;;
29570;SDS011;16814;52.118;11.436;2023-05-02T12:31:38;8.50;;;2.47;;
29570;SDS011;16814;52.118;11.436;2023-05-02T12:34:29;10.48;;;2.70;;
29570;SDS011;16814;52.118;11.436;2023-05-02T12:36:56;9.02;;;2.72;;
29570;SDS011;16814;52.118;11.436;2023-05-02T12:39:33;11.98;;;2.72;;
29570;SDS011;16814;52.118;11.436;2023-05-02T12:42:16;9.90;;;3.00;;
29570;SDS011;16814;52.118;11.436;2023-05-02T12:44:48;9.73;;;2.63;;
29570;SDS011;16814;52.118;11.436;2023-05-02T12:47:18;10.60;;;2.45;;
29570;SDS011;16814;52.118;11.436;2023-05-02T12:49:51;10.80;;;2.53;;
29570;SDS011;16814;52.118;11.436;2023-05-02T12:57:49;9.55;;;2.20;;
29570;SDS011;16814;52.118;11.436;2023-05-02T13:00:28;14.23;;;2.60;;
29570;SDS011;16814;52.118;11.436;2023-05-02T13:02:56;7.43;;;2.30;;
29570;SDS011;16814;52.118;11.436;2023-05-02T13:05:23;10.03;;;2.50;;
29570;SDS011;16814;52.118;11.436;2023-05-02T13:07:48;7.35;;;2.20;;
29570;SDS011;16814;52.118;11.436;2023-05-02T13:10:19;6.23;;;2.40;;
29570;SDS011;16814;52.118;11.436;2023-05-02T13:12:45;7.97;;;2.30;;
29570;SDS011;16814;52.118;11.436;2023-05-02T13:15:13;8.18;;;2.00;;
29570;SDS011;16814;52.118;11.436;2023-05-02T13:17:39;10.05;;;2.80;;
29570;SDS011;16814;52.118;11.436;2023-05-02T13:20:06;10.25;;;2.60;;
29570;SDS011;16814;52.118;11.436;2023-05-02T13:22:35;7.90;;;2.20;;
29570;SDS011;16814;52.118;11.436;2023-05-02T13:25:03;10.18;;;2.55;;
29570;SDS011;16814;52.118;11.436;2023-05-02T13:27:31;9.73;;;2.30;;
29570;SDS011;16814;52.118;11.436;2023-05-02T13:29:58;10.65;;;2.53;;
29570;SDS011;16814;52.118;11.436;2023-05-02T13:32:32;8.73;;;2.60;;
29570;SDS011;16814;52.118;11.436;2023-05-02T13:34:58;8.48;;;2.60;;
29570;SDS011;16814;52.118;11.436;2023-05-02T13:37:24;8.60;;;2.58;;
29570;SDS011;16814;52.118;11.436;2023-05-02T13:39:51;10.50;;;2.63;;
29570;SDS011;16814;52.118;11.436;2023-05-02T13:42:17;11.25;;;2.30;;
29570;SDS011;16814;52.118;11.436;2023-05-02T13:44:44;8.63;;;2.27;;
29570;SDS011;16814;52.118;11.436;2023-05-02T13:47:12;9.45;;;2.65;;
29570;SDS011;16814;52.118;11.436;2023-05-02T13:49:38;9.60;;;2.20;;
29570;SDS011;16814;52.118;11.436;2023-05-02T13:52:04;11.10;;;2.70;;
29570;SDS011;16814;52.118;11.436;2023-05-02T13:54:35;12.07;;;2.83;;
29570;SDS011;16814;52.118;11.436;2023-05-02T13:57:02;10.35;;;3.03;;
29570;SDS011;16814;52.118;11.436;2023-05-02T13:59:29;8.88;;;2.40;;
29570;SDS011;16814;52.118;11.436;2023-05-02T14:01:54;9.55;;;2.60;;
29570;SDS011;16814;52.118;11.436;2023-05-02T14:04:21;9.73;;;2.90;;
29570;SDS011;16814;52.118;11.436;2023-05-02T14:06:47;9.23;;;2.60;;
29570;SDS011;16814;52.118;11.436;2023-05-02T14:09:16;13.88;;;3.08;;
29570;SDS011;16814;52.118;11.436;2023-05-02T14:11:41;8.48;;;2.97;;
29570;SDS011;16814;52.118;11.436;2023-05-02T14:14:11;7.60;;;2.83;;
29570;SDS011;16814;52.118;11.436;2023-05-02T14:16:38;11.13;;;2.47;;
29570;SDS011;16814;52.118;11.436;2023-05-02T14:19:04;10.27;;;2.80;;
29570;SDS011;16814;52.118;11.436;2023-05-02T14:21:31;10.57;;;3.10;;
29570;SDS011;16814;52.118;11.436;2023-05-02T14:23:59;11.18;;;2.92;;
29570;SDS011;16814;52.118;11.436;2023-05-02T14:26:28;10.07;;;3.10;;
29570;SDS011;16814;52.118;11.436;2023-05-02T14:28:53;10.98;;;2.75;;
29570;SDS011;16814;52.118;11.436;2023-05-02T14:31:20;9.53;;;2.80;;
29570;SDS011;16814;52.118;11.436;2023-05-02T14:33:46;10.80;;;3.00;;
29570;SDS011;16814;52.118;11.436;2023-05-02T14:36:11;7.80;;;3.00;;
29570;SDS011;16814;52.118;11.436;2023-05-02T14:38:38;11.98;;;3.03;;
29570;SDS011;16814;52.118;11.436;2023-05-02T14:41:06;10.98;;;3.53;;
29570;SDS011;16814;52.118;11.436;2023-05-02T14:43:33;6.57;;;2.60;;
29570;SDS011;16814;52.118;11.436;2023-05-02T14:46:01;14.18;;;3.28;;
29570;SDS011;16814;52.118;11.436;2023-05-02T14:48:27;13.15;;;3.50;;
29570;SDS011;16814;52.118;11.436;2023-05-02T14:50:56;13.02;;;3.28;;
29570;SDS011;16814;52.118;11.436;2023-05-02T14:53:24;13.20;;;5.38;;
29570;SDS011;16814;52.118;11.436;2023-05-02T14:55:52;35.80;;;22.40;;
29570;SDS011;16814;52.118;11.436;2023-05-02T14:58:18;18.55;;;10.20;;
29570;SDS011;16814;52.118;11.436;2023-05-02T15:00:45;23.83;;;13.98;;
29570;SDS011;16814;52.118;11.436;2023-05-02T15:03:11;24.90;;;12.47;;
29570;SDS011;16814;52.118;11.436;2023-05-02T15:05:37;27.00;;;13.85;;
29570;SDS011;16814;52.118;11.436;2023-05-02T15:08:06;21.10;;;10.98;;
29570;SDS011;16814;52.118;11.436;2023-05-02T15:10:36;13.45;;;5.50;;
29570;SDS011;16814;52.118;11.436;2023-05-02T15:13:03;10.50;;;4.37;;
29570;SDS011;16814;52.118;11.436;2023-05-02T15:15:29;10.15;;;3.33;;